createdAt,value
2018-10-21T00:01:24.742Z,102463.56
2018-10-21T00:03:53.774Z,102463.12
2018-10-21T00:06:23.042Z,102461.69
2018-10-21T00:08:52.066Z,102467.72
2018-10-21T00:11:21.203Z,102473.91
2018-10-21T00:13:50.257Z,102478.99
2018-10-21T00:16:19.244Z,102470.16
2018-10-21T00:18:48.277Z,102474.55
2018-10-21T00:21:17.384Z,102474.24
2018-10-21T00:23:46.432Z,102472.80
2018-10-21T00:26:15.416Z,102473.51
2018-10-21T00:28:44.422Z,102475.03
2018-10-21T00:31:13.496Z,102473.08
2018-10-21T00:33:44.138Z,102474.59
2018-10-21T00:36:13.136Z,102475.77
2018-10-21T00:38:42.726Z,102476.41
2018-10-21T00:41:12.403Z,102483.23
2018-10-21T00:43:41.385Z,102482.78
2018-10-21T00:46:10.398Z,102483.59
2018-10-21T00:48:39.656Z,102478.90
2018-10-21T00:51:08.704Z,102475.83
2018-10-21T00:53:37.805Z,102478.48
2018-10-21T00:56:06.823Z,102472.53
2018-10-21T00:58:35.884Z,102475.32
2018-10-21T01:01:05.373Z,102472.83
2018-10-21T01:03:34.347Z,102478.42
2018-10-21T01:06:03.285Z,102473.84
2018-10-21T01:08:32.332Z,102478.33
2018-10-21T01:11:01.431Z,102482.47
2018-10-21T01:13:30.424Z,102483.30
2018-10-21T01:15:59.522Z,102485.22
2018-10-21T01:18:28.887Z,102486.97
2018-10-21T01:20:57.981Z,102480.77
2018-10-21T01:23:26.970Z,102477.66
2018-10-21T01:25:56.002Z,102478.59
2018-10-21T01:28:24.978Z,102476.45
2018-10-21T01:30:53.981Z,102476.95
2018-10-21T01:33:22.979Z,102478.06
2018-10-21T01:35:51.998Z,102480.13
2018-10-21T01:38:21.237Z,102482.30
2018-10-21T01:40:52.698Z,102481.53
2018-10-21T01:43:23.014Z,102484.28
2018-10-21T01:45:52.009Z,102480.07
2018-10-21T01:48:22.183Z,102477.50
2018-10-21T01:50:51.210Z,102468.41
2018-10-21T01:53:20.871Z,102463.61
2018-10-21T01:55:50.069Z,102459.83
2018-10-21T01:58:19.078Z,102465.22
2018-10-21T02:00:48.243Z,102463.67
2018-10-21T02:03:17.538Z,102464.03
2018-10-21T02:05:47.250Z,102468.00
2018-10-21T02:08:16.266Z,102462.80
2018-10-21T02:10:45.598Z,102468.48
2018-10-21T02:13:14.622Z,102467.22
2018-10-21T02:15:43.613Z,102465.31
2018-10-21T02:18:12.610Z,102466.58
2018-10-21T02:20:41.949Z,102464.77
2018-10-21T02:23:10.937Z,102465.80
2018-10-21T02:25:39.997Z,102466.44
2018-10-21T02:28:09.048Z,102462.89
2018-10-21T02:30:38.018Z,102467.19
2018-10-21T02:33:07.397Z,102471.05
2018-10-21T02:35:36.532Z,102469.15
2018-10-21T02:38:06.129Z,102471.31
2018-10-21T02:41:50.294Z,102477.34
2018-10-21T02:44:20.486Z,102476.92
2018-10-21T02:46:50.718Z,102482.46
2018-10-21T02:49:20.429Z,102484.20
2018-10-21T02:51:54.802Z,102485.31
2018-10-21T02:54:25.078Z,102487.27
2018-10-21T02:56:54.607Z,102482.98
2018-10-21T02:59:24.082Z,102486.47
2018-10-21T03:01:53.183Z,102491.28
2018-10-21T03:04:22.483Z,102488.25
2018-10-21T03:06:51.784Z,102496.09
2018-10-21T03:09:21.031Z,102487.90
2018-10-21T03:11:50.223Z,102488.39
2018-10-21T03:14:19.442Z,102490.72
2018-10-21T03:16:48.563Z,102490.06
2018-10-21T03:19:17.571Z,102490.16
2018-10-21T03:21:46.873Z,102488.06
2018-10-21T03:24:15.910Z,102491.10
2018-10-21T03:26:45.953Z,102492.50
2018-10-21T03:29:14.948Z,102495.59
2018-10-21T03:31:44.135Z,102491.71
2018-10-21T03:34:13.124Z,102498.53
2018-10-21T03:36:42.120Z,102491.71
2018-10-21T03:39:11.658Z,102495.58
2018-10-21T03:41:40.888Z,102509.08
2018-10-21T03:44:10.122Z,102505.44
2018-10-21T03:46:39.118Z,102509.88
2018-10-21T03:49:08.369Z,102511.31
2018-10-21T03:51:37.625Z,102509.77
2018-10-21T03:54:06.626Z,102516.09
2018-10-21T03:56:35.609Z,102522.32
2018-10-21T03:59:04.642Z,102527.77
2018-10-21T04:01:33.633Z,102525.73
2018-10-21T04:04:02.687Z,102522.92
2018-10-21T04:06:31.790Z,102516.30
2018-10-21T04:09:00.842Z,102518.34
2018-10-21T04:11:29.850Z,102513.41
2018-10-21T04:13:58.929Z,102521.15
2018-10-21T04:16:27.914Z,102519.03
2018-10-21T04:18:56.901Z,102519.67
2018-10-21T04:21:25.918Z,102522.06
2018-10-21T04:23:54.889Z,102531.53
2018-10-21T04:26:23.875Z,102531.16
2018-10-21T04:28:52.876Z,102526.55
2018-10-21T04:31:21.956Z,102523.41
2018-10-21T04:33:50.946Z,102519.78
2018-10-21T04:36:23.005Z,102520.34
2018-10-21T04:40:08.853Z,102521.94
2018-10-21T04:42:37.847Z,102519.70
2018-10-21T04:45:07.787Z,102523.23
2018-10-21T04:47:37.057Z,102518.72
2018-10-21T04:50:08.030Z,102523.03
2018-10-21T04:52:37.244Z,102521.97
2018-10-21T04:55:13.938Z,102521.09
2018-10-21T04:57:44.199Z,102523.23
2018-10-21T05:00:16.553Z,102516.91
2018-10-21T05:02:45.791Z,102512.83
2018-10-21T05:05:15.766Z,102508.52
2018-10-21T05:07:44.800Z,102514.77
2018-10-21T05:10:23.836Z,102514.93
2018-10-21T05:12:52.850Z,102524.81
2018-10-21T05:15:22.705Z,102529.20
2018-10-21T05:17:52.130Z,102524.41
2018-10-21T05:20:21.185Z,102531.25
2018-10-21T05:22:50.199Z,102524.29
2018-10-21T05:25:19.697Z,102525.80
2018-10-21T05:27:48.692Z,102522.81
2018-10-21T05:30:17.878Z,102515.31
2018-10-21T05:32:47.146Z,102522.16
2018-10-21T05:35:17.099Z,102531.63
2018-10-21T05:37:46.119Z,102535.27
2018-10-21T05:40:16.986Z,102531.91
2018-10-21T05:42:46.343Z,102524.72
2018-10-21T05:45:15.366Z,102532.45
2018-10-21T05:47:44.418Z,102532.22
2018-10-21T05:50:14.554Z,102528.58
2018-10-21T05:52:43.854Z,102532.37
2018-10-21T05:55:13.871Z,102530.98
2018-10-21T05:57:42.926Z,102534.84
2018-10-21T06:00:14.822Z,102529.88
2018-10-21T06:02:44.112Z,102536.43
2018-10-21T06:05:45.140Z,102537.84
2018-10-21T06:08:14.179Z,102539.56
2018-10-21T06:10:44.098Z,102539.02
2018-10-21T06:13:13.383Z,102536.38
2018-10-21T06:15:42.500Z,102539.31
2018-10-21T06:18:28.561Z,102543.84
2018-10-21T06:21:00.740Z,102544.03
2018-10-21T06:23:29.799Z,102548.31
2018-10-21T06:25:59.139Z,102555.04
2018-10-21T06:28:28.180Z,102556.81
2018-10-21T06:30:57.179Z,102567.92
2018-10-21T06:40:27.436Z,102577.77
2018-10-21T06:42:56.631Z,102577.58
2018-10-21T06:45:25.724Z,102582.93
2018-10-21T06:47:55.000Z,102587.87
2018-10-21T06:50:24.010Z,102587.52
2018-10-21T06:52:53.119Z,102586.44
2018-10-21T06:55:22.174Z,102587.63
2018-10-21T06:57:51.509Z,102594.61
2018-10-21T07:00:20.457Z,102589.58
2018-10-21T07:02:50.032Z,102594.70
2018-10-21T07:05:36.415Z,102598.30
2018-10-21T07:08:05.602Z,102593.86
2018-10-21T07:10:34.629Z,102596.53
2018-10-21T07:13:03.613Z,102598.16
2018-10-21T07:15:32.698Z,102598.09
2018-10-21T07:18:01.682Z,102599.87
2018-10-21T07:20:30.689Z,102594.48
2018-10-21T07:22:59.793Z,102596.97
2018-10-21T07:25:28.806Z,102600.84
2018-10-21T07:27:57.808Z,102599.66
2018-10-21T07:30:26.803Z,102607.52
2018-10-21T07:32:55.806Z,102616.07
2018-10-21T07:35:24.792Z,102617.81
2018-10-21T07:37:53.978Z,102624.92
2018-10-21T07:40:22.945Z,102623.82
2018-10-21T07:42:51.980Z,102620.67
2018-10-21T07:45:21.071Z,102626.59
2018-10-21T07:47:51.570Z,102620.83
2018-10-21T07:50:20.983Z,102627.23
2018-10-21T07:52:50.010Z,102629.05
2018-10-21T07:55:19.475Z,102623.23
2018-10-21T07:57:48.865Z,102626.16
2018-10-21T08:00:18.170Z,102623.70
2018-10-21T08:02:47.179Z,102621.19
2018-10-21T08:05:33.617Z,102627.57
2018-10-21T08:08:14.051Z,102626.34
2018-10-21T08:10:43.258Z,102626.20
2018-10-21T08:13:13.244Z,102630.49
2018-10-21T08:15:43.285Z,102627.84
2018-10-21T08:18:13.076Z,102625.48
2018-10-21T08:20:43.169Z,102624.47
2018-10-21T08:23:13.402Z,102624.17
2018-10-21T08:25:43.006Z,102612.37
2018-10-21T08:28:12.185Z,102611.95
2018-10-21T08:30:41.171Z,102620.81
2018-10-21T08:33:10.222Z,102624.09
2018-10-21T08:35:39.290Z,102624.80
2018-10-21T08:38:08.262Z,102624.22
2018-10-21T08:40:37.329Z,102626.34
2018-10-21T08:43:06.591Z,102626.48
2018-10-21T08:45:35.743Z,102628.51
2018-10-21T08:48:04.789Z,102630.22
2018-10-21T08:50:34.071Z,102628.81
2018-10-21T08:53:03.123Z,102628.20
2018-10-21T08:55:32.537Z,102630.02
2018-10-21T08:58:01.585Z,102629.14
2018-10-21T09:00:30.537Z,102629.44
2018-10-21T09:02:59.534Z,102630.11
2018-10-21T09:05:28.589Z,102626.94
2018-10-21T09:07:57.618Z,102626.17
2018-10-21T09:10:26.608Z,102621.23
2018-10-21T09:12:55.747Z,102619.72
2018-10-21T09:15:24.743Z,102621.94
2018-10-21T09:17:53.769Z,102620.92
2018-10-21T09:20:23.045Z,102612.31
2018-10-21T09:22:52.092Z,102607.29
2018-10-21T09:25:21.118Z,102598.77
2018-10-21T09:27:50.370Z,102612.21
2018-10-21T09:30:19.409Z,102606.11
2018-10-21T09:32:48.414Z,102616.52
2018-10-21T09:35:18.535Z,102611.16
2018-10-21T09:37:47.894Z,102611.81
2018-10-21T09:40:18.373Z,102607.64
2018-10-21T09:42:47.955Z,102602.48
2018-10-21T09:45:18.403Z,102599.75
2018-10-21T09:47:47.594Z,102599.81
2018-10-21T09:50:16.734Z,102598.81
2018-10-21T09:52:45.753Z,102607.02
2018-10-21T09:55:18.657Z,102600.34
2018-10-21T09:57:48.478Z,102598.39
2018-10-21T10:00:22.742Z,102597.78
2018-10-21T10:02:57.108Z,102590.45
2018-10-21T10:05:26.186Z,102593.48
2018-10-21T10:07:55.917Z,102589.09
2018-10-21T10:10:25.634Z,102586.30
2018-10-21T10:12:54.820Z,102581.45
2018-10-21T10:15:23.921Z,102580.97
2018-10-21T10:17:53.392Z,102577.16
2018-10-21T10:20:22.646Z,102580.75
2018-10-21T10:22:51.987Z,102571.67
2018-10-21T10:25:20.992Z,102582.72
2018-10-21T10:27:49.983Z,102578.40
2018-10-21T10:30:19.099Z,102572.95
2018-10-21T10:32:48.153Z,102565.67
2018-10-21T10:35:17.155Z,102561.42
2018-10-21T10:37:46.211Z,102557.72
2018-10-21T10:40:15.193Z,102548.37
2018-10-21T10:42:44.373Z,102554.83
2018-10-21T10:45:13.359Z,102549.75
2018-10-21T10:47:42.370Z,102543.98
2018-10-21T10:50:11.990Z,102546.27
2018-10-21T10:52:41.291Z,102539.08
2018-10-21T10:55:10.749Z,102539.72
2018-10-21T10:57:39.731Z,102536.58
2018-10-21T11:00:10.593Z,102538.52
2018-10-21T11:02:39.972Z,102544.03
2018-10-21T11:05:09.966Z,102533.75
2018-10-21T11:07:39.175Z,102528.86
2018-10-21T11:10:09.413Z,102526.84
2018-10-21T11:12:38.444Z,102532.27
2018-10-21T11:15:08.330Z,102526.97
2018-10-21T11:17:37.319Z,102520.86
2018-10-21T11:20:06.887Z,102518.15
2018-10-21T11:22:35.957Z,102513.83
2018-10-21T11:25:06.922Z,102511.91
2018-10-21T11:27:36.053Z,102522.45
2018-10-21T11:30:05.882Z,102520.98
2018-10-21T11:32:34.935Z,102513.28
2018-10-21T11:35:04.815Z,102519.75
2018-10-21T11:37:33.924Z,102521.94
2018-10-21T11:40:02.859Z,102518.17
2018-10-21T11:42:32.490Z,102517.33
2018-10-21T11:45:02.048Z,102514.52
2018-10-21T11:47:31.082Z,102513.95
2018-10-21T11:50:00.103Z,102510.74
2018-10-21T11:52:29.168Z,102504.67
2018-10-21T11:54:58.205Z,102505.52
2018-10-21T11:57:27.180Z,102502.31
2018-10-21T11:59:56.178Z,102500.09
2018-10-21T12:02:25.406Z,102503.86
2018-10-21T12:04:54.416Z,102507.46
2018-10-21T12:07:23.714Z,102502.27
2018-10-21T12:09:53.251Z,102511.41
2018-10-21T12:12:22.292Z,102500.14
2018-10-21T12:14:51.269Z,102499.56
2018-10-21T12:17:20.410Z,102501.02
2018-10-21T12:19:49.508Z,102496.14
2018-10-21T12:22:18.574Z,102494.66
2018-10-21T12:24:47.655Z,102495.97
2018-10-21T12:27:16.625Z,102491.06
2018-10-21T12:29:45.626Z,102489.91
2018-10-21T12:32:14.962Z,102490.16
2018-10-21T12:34:44.110Z,102487.69
2018-10-21T12:37:13.809Z,102489.03
2018-10-21T12:39:42.721Z,102484.08
2018-10-21T12:42:11.758Z,102481.86
2018-10-21T12:44:40.924Z,102476.05
2018-10-21T12:47:10.026Z,102480.76
2018-10-21T12:49:38.978Z,102476.56
2018-10-21T12:52:07.968Z,102475.42
2018-10-21T12:54:37.121Z,102476.19
2018-10-21T12:57:06.347Z,102474.88
2018-10-21T12:59:35.411Z,102472.41
2018-10-21T13:02:04.444Z,102462.05
2018-10-21T13:04:33.505Z,102461.11
2018-10-21T13:07:02.914Z,102457.20
2018-10-21T13:09:31.853Z,102456.77
2018-10-21T13:12:00.853Z,102461.06
2018-10-21T13:14:29.829Z,102461.36
2018-10-21T13:16:58.890Z,102456.81
2018-10-21T13:19:28.234Z,102452.44
2018-10-21T13:21:57.315Z,102451.22
2018-10-21T13:24:26.384Z,102448.14
2018-10-21T13:26:55.701Z,102453.39
2018-10-21T13:29:24.681Z,102444.41
2018-10-21T13:31:53.892Z,102440.23
2018-10-21T13:34:23.281Z,102439.14
2018-10-21T13:36:52.906Z,102441.27
2018-10-21T13:39:21.915Z,102437.67
2018-10-21T13:41:50.892Z,102434.80
2018-10-21T13:44:19.946Z,102434.41
2018-10-21T13:46:48.942Z,102430.02
2018-10-21T13:49:17.962Z,102429.50
2018-10-21T13:51:46.972Z,102424.65
2018-10-21T13:54:15.948Z,102424.97
2018-10-21T13:56:44.947Z,102425.84
2018-10-21T13:59:14.041Z,102421.12
2018-10-21T14:01:43.070Z,102426.05
2018-10-21T14:04:12.231Z,102414.41
2018-10-21T14:06:41.268Z,102416.85
2018-10-21T14:09:12.500Z,102404.83
2018-10-21T14:11:41.782Z,102402.28
2018-10-21T14:14:11.835Z,102403.34
2018-10-21T14:16:41.154Z,102404.00
2018-10-21T14:19:10.319Z,102401.33
2018-10-21T14:21:39.663Z,102411.16
2018-10-21T14:24:08.753Z,102411.05
2018-10-21T14:26:37.846Z,102405.38
2018-10-21T14:29:07.164Z,102407.88
2018-10-21T14:31:36.446Z,102396.48
2018-10-21T14:34:06.123Z,102398.02
2018-10-21T14:36:35.431Z,102397.08
2018-10-21T14:39:08.833Z,102388.68
2018-10-21T14:41:38.987Z,102403.83
2018-10-21T14:44:08.886Z,102392.43
2018-10-21T14:46:39.924Z,102395.49
2018-10-21T14:49:10.290Z,102394.47
2018-10-21T14:51:40.378Z,102386.96
2018-10-21T14:54:10.475Z,102386.68
2018-10-21T14:56:40.377Z,102386.32
2018-10-21T14:59:09.972Z,102392.78
2018-10-21T15:01:39.678Z,102387.86
2018-10-21T15:04:09.387Z,102388.34
2018-10-21T15:06:39.364Z,102389.21
2018-10-21T15:09:13.551Z,102381.63
2018-10-21T15:11:43.365Z,102380.54
2018-10-21T15:14:13.519Z,102381.47
2018-10-21T15:16:43.760Z,102378.91
2018-10-21T15:19:13.376Z,102380.73
2018-10-21T15:21:43.766Z,102381.19
2018-10-21T15:24:13.686Z,102365.69
2018-10-21T15:26:43.722Z,102369.90
2018-10-21T15:29:14.690Z,102374.80
2018-10-21T15:31:44.650Z,102376.78
2018-10-21T15:34:14.874Z,102367.38
2018-10-21T15:36:45.984Z,102375.97
2018-10-21T15:39:17.696Z,102372.72
2018-10-21T15:41:47.205Z,102365.14
2018-10-21T15:44:18.285Z,102374.49
2018-10-21T15:46:47.974Z,102369.71
2018-10-21T15:49:17.704Z,102365.19
2018-10-21T15:51:49.327Z,102370.55
2018-10-21T15:54:20.374Z,102373.06
2018-10-21T15:56:52.124Z,102366.58
2018-10-21T15:59:21.165Z,102366.97
2018-10-21T16:01:50.740Z,102370.43
2018-10-21T16:04:22.041Z,102367.79
2018-10-21T16:06:51.904Z,102370.25
2018-10-21T16:09:22.305Z,102364.71
2018-10-21T16:11:51.698Z,102367.60
2018-10-21T16:14:20.968Z,102364.14
2018-10-21T16:16:49.952Z,102361.50
2018-10-21T16:19:19.797Z,102369.30
2018-10-21T16:21:49.206Z,102370.59
2018-10-21T16:24:18.478Z,102375.78
2018-10-21T16:26:47.928Z,102373.84
2018-10-21T16:29:17.059Z,102374.12
2018-10-21T16:31:46.096Z,102374.03
2018-10-21T16:34:16.487Z,102374.61
2018-10-21T16:36:46.662Z,102379.55
2018-10-21T16:39:16.291Z,102382.81
2018-10-21T16:41:46.192Z,102384.12
2018-10-21T16:44:16.143Z,102386.02
2018-10-21T16:46:45.942Z,102388.09
2018-10-21T16:49:16.696Z,102385.91
2018-10-21T16:51:46.635Z,102389.59
2018-10-21T16:54:17.809Z,102392.41
2018-10-21T16:56:47.948Z,102389.05
2018-10-21T16:59:18.493Z,102386.99
2018-10-21T17:01:48.618Z,102385.91
2018-10-21T17:04:17.762Z,102383.81
2018-10-21T17:06:48.349Z,102393.25
2018-10-21T17:09:17.517Z,102384.83
2018-10-21T17:11:46.917Z,102387.42
2018-10-21T17:14:15.990Z,102385.01
2018-10-21T17:16:45.173Z,102388.56
2018-10-21T17:19:14.470Z,102394.77
2018-10-21T17:21:43.657Z,102394.41
2018-10-21T17:24:12.663Z,102393.54
2018-10-21T17:26:41.617Z,102391.03
2018-10-21T17:29:10.597Z,102387.80
2018-10-21T17:31:39.569Z,102390.30
2018-10-21T17:34:09.158Z,102391.06
2018-10-21T17:36:38.249Z,102384.69
2018-10-21T17:39:13.477Z,102382.50
2018-10-21T17:41:42.704Z,102379.93
2018-10-21T17:44:12.266Z,102383.25
2018-10-21T17:46:41.321Z,102384.68
2018-10-21T17:49:10.676Z,102381.09
2018-10-21T17:51:39.631Z,102377.61
2018-10-21T17:54:09.038Z,102380.13
2018-10-21T17:56:43.596Z,102380.73
2018-10-21T17:59:12.700Z,102378.61
2018-10-21T18:01:41.745Z,102374.75
2018-10-21T18:04:10.790Z,102377.95
2018-10-21T18:06:39.859Z,102375.62
2018-10-21T18:09:10.814Z,102375.48
2018-10-21T18:11:39.873Z,102372.77
2018-10-21T18:14:09.251Z,102371.30
2018-10-21T18:16:38.422Z,102372.55
2018-10-21T18:19:07.951Z,102374.77
2018-10-21T18:21:36.910Z,102374.64
2018-10-21T18:24:06.258Z,102373.31
2018-10-21T18:26:35.592Z,102379.98
2018-10-21T18:29:04.863Z,102372.92
2018-10-21T18:31:33.896Z,102375.68
2018-10-21T18:34:02.952Z,102372.00
2018-10-21T18:36:31.944Z,102369.12
2018-10-21T18:39:01.142Z,102376.27
2018-10-21T18:41:30.155Z,102372.33
2018-10-21T18:43:59.170Z,102366.03
2018-10-21T18:46:28.162Z,102381.61
2018-10-21T18:48:57.196Z,102372.02
2018-10-21T18:51:26.225Z,102368.97
2018-10-21T18:53:55.228Z,102367.21
2018-10-21T18:56:24.206Z,102368.70
2018-10-21T18:58:53.204Z,102365.33
2018-10-21T19:01:22.173Z,102367.58
2018-10-21T19:03:51.170Z,102364.49
2018-10-21T19:06:20.445Z,102364.12
2018-10-21T19:08:49.518Z,102362.62
2018-10-21T19:11:18.509Z,102361.89
2018-10-21T19:13:47.679Z,102361.81
2018-10-21T19:16:16.723Z,102365.05
2018-10-21T19:18:45.623Z,102364.23
2018-10-21T19:21:14.613Z,102370.30
2018-10-21T19:23:43.749Z,102357.19
2018-10-21T19:26:12.739Z,102360.98
2018-10-21T19:28:41.763Z,102358.39
2018-10-21T19:31:11.140Z,102366.48
2018-10-21T19:33:40.461Z,102362.95
2018-10-21T19:36:09.681Z,102365.42
2018-10-21T19:38:38.682Z,102370.91
2018-10-21T19:41:07.827Z,102367.69
2018-10-21T19:43:37.078Z,102372.22
2018-10-21T19:46:06.216Z,102371.57
2018-10-21T19:48:35.225Z,102374.44
2018-10-21T19:51:04.466Z,102370.22
2018-10-21T19:53:33.663Z,102371.05
2018-10-21T19:56:02.725Z,102375.19
2018-10-21T19:58:31.790Z,102372.16
2018-10-21T20:01:00.962Z,102374.32
2018-10-21T20:03:30.114Z,102372.26
2018-10-21T20:05:59.292Z,102368.13
2018-10-21T20:08:28.518Z,102372.77
2018-10-21T20:10:57.572Z,102370.56
2018-10-21T20:13:26.943Z,102372.80
2018-10-21T20:15:56.091Z,102365.28
2018-10-21T20:18:25.236Z,102368.44
2018-10-21T20:20:54.171Z,102371.95
2018-10-21T20:23:23.172Z,102373.33
2018-10-21T20:25:52.146Z,102368.97
2018-10-21T20:28:21.148Z,102360.22
2018-10-21T20:30:50.165Z,102357.91
2018-10-21T20:33:19.390Z,102363.59
2018-10-21T20:35:48.355Z,102355.98
2018-10-21T20:38:17.423Z,102359.19
2018-10-21T20:40:46.382Z,102358.98
2018-10-21T20:43:15.740Z,102352.00
2018-10-21T20:45:44.834Z,102355.25
2018-10-21T20:48:14.229Z,102360.56
2018-10-21T20:50:43.222Z,102361.48
2018-10-21T20:53:12.203Z,102359.62
2018-10-21T20:55:41.218Z,102363.15
2018-10-21T20:58:10.207Z,102368.17
2018-10-21T21:00:39.189Z,102369.56
2018-10-21T21:03:08.260Z,102370.41
2018-10-21T21:05:37.242Z,102369.97
2018-10-21T21:08:06.309Z,102369.05
2018-10-21T21:10:35.294Z,102373.89
2018-10-21T21:13:04.274Z,102371.63
2018-10-21T21:15:33.273Z,102369.19
2018-10-21T21:18:02.337Z,102373.78
2018-10-21T21:20:31.357Z,102373.09
2018-10-21T21:23:00.332Z,102368.71
2018-10-21T21:25:30.035Z,102366.63
2018-10-21T21:27:59.438Z,102367.27
2018-10-21T21:30:28.720Z,102371.59
2018-10-21T21:32:57.701Z,102367.90
2018-10-21T21:35:26.701Z,102358.71
2018-10-21T21:37:55.674Z,102359.52
2018-10-21T21:40:24.760Z,102357.80
2018-10-21T21:42:54.060Z,102361.52
2018-10-21T21:45:23.090Z,102363.59
2018-10-21T21:47:52.077Z,102354.66
2018-10-21T21:50:21.338Z,102357.45
2018-10-21T21:52:50.333Z,102350.88
2018-10-21T21:55:19.315Z,102354.42
2018-10-21T21:57:48.798Z,102356.92
2018-10-21T22:00:17.851Z,102350.16
2018-10-21T22:02:46.810Z,102345.38
2018-10-21T22:05:15.823Z,102344.70
2018-10-21T22:07:44.830Z,102344.41
2018-10-21T22:10:14.317Z,102347.86
2018-10-21T22:12:44.206Z,102342.69
2018-10-21T22:15:13.544Z,102340.21
2018-10-21T22:17:42.792Z,102340.05
2018-10-21T22:20:12.840Z,102335.33
2018-10-21T22:22:42.234Z,102330.56
2018-10-21T22:25:11.228Z,102333.41
2018-10-21T22:27:40.398Z,102339.51
2018-10-21T22:30:11.012Z,102331.97
2018-10-21T22:32:39.982Z,102329.30
2018-10-21T22:35:09.666Z,102332.60
2018-10-21T22:37:39.066Z,102327.20
2018-10-21T22:40:08.166Z,102327.81
2018-10-21T22:42:37.362Z,102321.29
2018-10-21T22:45:08.301Z,102323.66
2018-10-21T22:47:37.519Z,102319.53
2018-10-21T22:50:08.695Z,102318.25
2018-10-21T22:52:37.707Z,102320.92
2018-10-21T22:55:07.567Z,102319.03
2018-10-21T22:57:36.562Z,102317.13
2018-10-21T23:00:07.732Z,102315.22
2018-10-21T23:02:36.650Z,102312.06
2018-10-21T23:05:07.330Z,102316.28
2018-10-21T23:07:36.622Z,102312.67
2018-10-21T23:10:06.168Z,102306.02
2018-10-21T23:12:35.101Z,102299.58
2018-10-21T23:15:04.091Z,102302.95
2018-10-21T23:17:33.149Z,102299.14
2018-10-21T23:20:02.161Z,102307.16
2018-10-21T23:22:31.134Z,102305.07
2018-10-21T23:25:00.129Z,102304.67
2018-10-21T23:27:29.121Z,102301.98
2018-10-21T23:29:58.120Z,102307.04
2018-10-21T23:32:27.102Z,102301.57
2018-10-21T23:34:56.669Z,102300.81
2018-10-21T23:37:25.674Z,102296.81
2018-10-21T23:39:54.996Z,102287.68
2018-10-21T23:42:24.009Z,102300.81
2018-10-21T23:44:52.999Z,102299.58
2018-10-21T23:47:21.998Z,102284.33
2018-10-21T23:49:51.502Z,102285.23
2018-10-21T23:52:21.041Z,102283.19
2018-10-21T23:54:50.480Z,102274.72
2018-10-21T23:57:19.486Z,102277.80
2018-10-21T23:59:48.755Z,102277.81
